createdAt,value
2023-08-23T00:03:23.346Z,9.93
2023-08-23T00:08:26.878Z,10.83
2023-08-23T00:13:31.348Z,9.73
2023-08-23T00:18:34.496Z,10.60
2023-08-23T00:23:38.669Z,10.80
2023-08-23T00:28:43.484Z,10.50
2023-08-23T00:33:46.625Z,11.00
2023-08-23T00:38:49.834Z,10.30
2023-08-23T00:43:54.428Z,11.27
2023-08-23T00:48:58.152Z,11.17
2023-08-23T00:54:01.739Z,12.40
2023-08-23T00:59:09.081Z,10.97
2023-08-23T01:04:12.580Z,11.37
2023-08-23T01:09:26.021Z,10.40
2023-08-23T01:14:38.034Z,11.20
2023-08-23T01:19:46.071Z,10.60
2023-08-23T01:24:51.993Z,10.97
2023-08-23T01:29:55.129Z,11.20
2023-08-23T01:35:04.182Z,11.73
2023-08-23T01:40:11.720Z,11.10
2023-08-23T01:45:14.984Z,11.10
2023-08-23T01:50:18.551Z,12.00
2023-08-23T01:55:22.986Z,11.57
2023-08-23T02:00:26.455Z,11.27
2023-08-23T02:05:31.708Z,11.70
2023-08-23T02:10:36.186Z,12.00
2023-08-23T02:15:39.335Z,11.90
2023-08-23T02:20:42.813Z,12.97
2023-08-23T02:25:47.231Z,11.80
2023-08-23T02:30:50.693Z,12.23
2023-08-23T02:35:53.774Z,11.90
2023-08-23T02:40:58.572Z,12.30
2023-08-23T02:46:02.007Z,12.20
2023-08-23T02:51:05.087Z,13.40
2023-08-23T02:56:09.494Z,12.40
2023-08-23T03:01:13.021Z,12.60
2023-08-23T03:06:16.416Z,13.73
2023-08-23T03:11:20.872Z,14.03
2023-08-23T03:16:24.259Z,14.70
2023-08-23T03:21:27.898Z,13.70
2023-08-23T03:26:32.724Z,15.00
2023-08-23T03:31:36.320Z,14.83
2023-08-23T03:36:40.018Z,14.83
2023-08-23T03:41:44.789Z,14.87
2023-08-23T03:46:47.965Z,16.50
2023-08-23T03:51:51.574Z,15.87
2023-08-23T03:56:56.429Z,16.70
2023-08-23T04:01:59.994Z,16.27
2023-08-23T04:07:03.081Z,14.73
2023-08-23T04:12:08.982Z,14.90
2023-08-23T04:17:12.463Z,15.43
2023-08-23T04:22:15.750Z,15.73
2023-08-23T04:27:20.510Z,18.10
2023-08-23T04:32:24.095Z,16.70
2023-08-23T04:37:27.256Z,16.07
2023-08-23T04:42:32.510Z,16.33
2023-08-23T04:47:35.658Z,15.70
2023-08-23T04:52:38.868Z,17.57
2023-08-23T04:57:43.392Z,18.00
2023-08-23T05:02:46.492Z,17.97
2023-08-23T05:07:50.630Z,18.40
2023-08-23T05:12:57.450Z,17.53
2023-08-23T05:18:00.963Z,17.27
2023-08-23T05:23:04.624Z,16.80
2023-08-23T05:28:09.167Z,16.50
2023-08-23T05:33:12.314Z,16.10
2023-08-23T05:38:16.000Z,16.17
2023-08-23T05:43:20.826Z,16.70
2023-08-23T05:48:24.248Z,16.97
2023-08-23T05:53:27.345Z,17.83
2023-08-23T05:58:31.773Z,16.67
2023-08-23T06:03:35.130Z,15.93
2023-08-23T06:08:38.265Z,16.73
2023-08-23T06:13:44.217Z,16.90
2023-08-23T06:18:47.508Z,17.03
2023-08-23T06:23:50.620Z,16.00
2023-08-23T06:28:55.958Z,16.17
2023-08-23T06:33:59.068Z,14.63
2023-08-23T06:39:02.772Z,15.93
2023-08-23T06:44:07.301Z,16.30
2023-08-23T06:49:11.396Z,13.50
2023-08-23T06:54:14.557Z,15.90
2023-08-23T06:59:19.089Z,17.53
2023-08-23T07:04:22.552Z,16.13
2023-08-23T07:09:25.726Z,15.47
2023-08-23T07:14:30.207Z,15.60
2023-08-23T07:19:33.671Z,14.27
2023-08-23T07:24:36.904Z,14.93
2023-08-23T07:29:41.395Z,14.50
2023-08-23T07:34:44.708Z,11.23
2023-08-23T07:39:48.172Z,11.75
2023-08-23T07:44:52.822Z,10.55
2023-08-23T07:49:56.149Z,11.90
2023-08-23T07:54:59.757Z,11.25
2023-08-23T08:00:05.314Z,11.82
2023-08-23T08:05:09.900Z,15.43
2023-08-23T08:10:13.915Z,11.05
2023-08-23T08:15:18.558Z,10.27
2023-08-23T08:20:22.397Z,13.60
2023-08-23T08:25:25.543Z,8.77
2023-08-23T08:30:29.961Z,11.95
2023-08-23T08:35:33.095Z,8.60
2023-08-23T08:40:37.904Z,9.05
2023-08-23T08:45:42.372Z,9.25
2023-08-23T08:50:45.818Z,8.52
2023-08-23T08:55:50.445Z,9.10
2023-08-23T09:00:56.466Z,8.35
2023-08-23T09:05:59.621Z,8.98
2023-08-23T09:11:02.731Z,8.18
2023-08-23T09:16:07.860Z,10.45
2023-08-23T09:21:13.117Z,7.32
2023-08-23T09:26:17.044Z,7.30
2023-08-23T09:31:21.734Z,8.23
2023-08-23T09:36:28.023Z,8.32
2023-08-23T09:41:32.121Z,12.38
2023-08-23T09:46:38.346Z,6.68
2023-08-23T09:51:42.103Z,6.65
2023-08-23T09:56:46.254Z,6.97
2023-08-23T10:01:51.901Z,6.47
2023-08-23T10:06:55.133Z,4.40
2023-08-23T10:11:58.709Z,6.40
2023-08-23T10:17:04.865Z,5.13
2023-08-23T10:22:08.560Z,8.63
2023-08-23T10:27:12.141Z,11.13
2023-08-23T10:32:16.576Z,4.82
2023-08-23T10:37:21.582Z,6.75
2023-08-23T10:42:26.902Z,5.78
2023-08-23T10:47:34.296Z,4.72
2023-08-23T10:52:37.826Z,6.18
2023-08-23T10:57:41.512Z,3.33
2023-08-23T11:02:45.994Z,3.28
2023-08-23T11:07:49.770Z,3.97
2023-08-23T11:12:53.543Z,3.95
2023-08-23T11:17:59.141Z,3.60
2023-08-23T11:23:02.975Z,3.78
2023-08-23T11:28:08.060Z,3.53
2023-08-23T11:33:13.017Z,5.22
2023-08-23T11:38:16.113Z,3.70
2023-08-23T11:43:23.156Z,6.18
2023-08-23T11:48:28.046Z,3.70
2023-08-23T11:53:31.238Z,5.93
2023-08-23T11:58:34.668Z,3.30
2023-08-23T12:03:39.179Z,3.45
2023-08-23T12:08:42.305Z,3.05
2023-08-23T12:19:17.843Z,3.63
2023-08-23T12:24:31.084Z,3.85
2023-08-23T12:29:34.225Z,5.70
2023-08-23T12:34:38.646Z,3.72
2023-08-23T12:39:42.157Z,4.97
2023-08-23T12:44:45.704Z,3.15
2023-08-23T12:49:50.584Z,3.05
2023-08-23T12:54:53.719Z,5.20
2023-08-23T12:59:57.039Z,4.82
2023-08-23T13:05:01.914Z,2.00
2023-08-23T13:10:05.623Z,4.35
2023-08-23T13:15:10.619Z,2.58
2023-08-23T13:20:15.596Z,2.38
2023-08-23T13:25:19.042Z,4.50
2023-08-23T13:30:22.365Z,2.45
2023-08-23T13:35:26.819Z,3.60
2023-08-23T13:40:29.928Z,2.20
2023-08-23T13:45:33.559Z,2.97
2023-08-23T13:50:38.138Z,2.92
2023-08-23T13:55:41.578Z,1.70
2023-08-23T14:00:46.414Z,1.88
2023-08-23T14:05:58.968Z,3.25
2023-08-23T14:11:02.088Z,2.05
2023-08-23T14:16:05.989Z,2.03
2023-08-23T14:21:10.426Z,2.60
2023-08-23T14:26:13.527Z,2.00
2023-08-23T14:31:16.726Z,2.80
2023-08-23T14:36:21.330Z,2.10
2023-08-23T14:41:25.411Z,2.58
2023-08-23T14:46:28.937Z,3.92
2023-08-23T14:51:33.937Z,1.90
2023-08-23T14:56:37.281Z,2.28
2023-08-23T15:01:40.876Z,2.10
2023-08-23T15:06:45.735Z,2.50
2023-08-23T15:11:48.839Z,2.30
2023-08-23T15:16:51.932Z,2.85
2023-08-23T15:21:56.752Z,3.17
2023-08-23T15:27:00.677Z,4.10
2023-08-23T15:32:04.336Z,2.40
2023-08-23T15:37:08.808Z,3.38
2023-08-23T15:42:12.742Z,2.42
2023-08-23T15:47:17.609Z,3.63
2023-08-23T15:52:22.446Z,3.78
2023-08-23T15:57:25.543Z,7.68
2023-08-23T16:02:28.659Z,2.78
2023-08-23T16:07:33.182Z,2.85
2023-08-23T16:12:36.304Z,4.07
2023-08-23T16:17:40.414Z,4.40
2023-08-23T16:22:45.531Z,2.72
2023-08-23T16:27:48.916Z,3.20
2023-08-23T16:32:52.605Z,3.17
2023-08-23T16:37:57.304Z,3.22
2023-08-23T16:43:01.578Z,3.15
2023-08-23T16:48:05.389Z,3.10
2023-08-23T16:53:10.038Z,3.67
2023-08-23T16:58:13.162Z,3.40
2023-08-23T17:03:16.266Z,2.85
2023-08-23T17:08:20.740Z,3.15
2023-08-23T17:13:26.001Z,2.30
2023-08-23T17:18:29.562Z,5.47
2023-08-23T17:23:34.037Z,4.22
2023-08-23T17:28:39.411Z,3.75
2023-08-23T17:33:42.733Z,2.88
2023-08-23T17:38:47.676Z,3.55
2023-08-23T17:43:50.763Z,3.47
2023-08-23T17:48:54.116Z,2.65
2023-08-23T17:53:58.735Z,2.33
2023-08-23T17:59:02.195Z,4.50
2023-08-23T18:04:05.924Z,2.28
2023-08-23T18:09:10.404Z,3.80
2023-08-23T18:14:13.672Z,3.15
2023-08-23T18:19:17.753Z,3.97
2023-08-23T18:24:22.532Z,4.18
2023-08-23T18:29:25.797Z,3.65
2023-08-23T18:34:29.116Z,4.03
2023-08-23T18:39:33.592Z,3.83
2023-08-23T18:44:36.738Z,3.13
2023-08-23T18:49:42.014Z,3.67
2023-08-23T18:54:46.481Z,3.00
2023-08-23T18:59:50.339Z,3.10
2023-08-23T19:04:53.627Z,4.87
2023-08-23T19:10:02.206Z,4.53
2023-08-23T19:15:06.700Z,4.13
2023-08-23T19:20:10.206Z,4.05
2023-08-23T19:25:14.772Z,3.30
2023-08-23T19:30:18.715Z,4.43
2023-08-23T19:35:23.379Z,3.80
2023-08-23T19:40:27.849Z,2.93
2023-08-23T19:45:31.290Z,4.33
2023-08-23T19:50:34.834Z,4.33
2023-08-23T19:55:39.295Z,2.93
2023-08-23T20:00:42.367Z,2.97
2023-08-23T20:05:46.096Z,3.23
2023-08-23T20:10:52.516Z,4.43
2023-08-23T20:15:56.611Z,4.47
2023-08-23T20:21:00.090Z,4.33
2023-08-23T20:26:04.619Z,2.90
2023-08-23T20:31:07.904Z,2.97
2023-08-23T20:36:11.288Z,2.83
2023-08-23T20:41:16.211Z,5.00
2023-08-23T20:46:19.386Z,3.00
2023-08-23T20:51:22.530Z,4.13
2023-08-23T20:56:27.096Z,2.90
2023-08-23T21:01:30.235Z,4.10
2023-08-23T21:06:33.431Z,2.53
2023-08-23T21:11:37.911Z,5.20
2023-08-23T21:16:41.110Z,3.40
2023-08-23T21:21:44.316Z,3.70
2023-08-23T21:26:48.832Z,4.53
2023-08-23T21:31:51.926Z,3.10
2023-08-23T21:36:55.073Z,4.33
2023-08-23T21:41:59.598Z,3.17
2023-08-23T21:47:03.153Z,4.20
2023-08-23T21:52:07.050Z,4.10
2023-08-23T21:57:12.078Z,3.40
2023-08-23T22:02:15.835Z,3.20
2023-08-23T22:07:19.402Z,3.73
2023-08-23T22:12:23.883Z,6.57
2023-08-23T22:17:27.144Z,4.90
2023-08-23T22:22:30.730Z,3.00
2023-08-23T22:27:35.184Z,3.83
2023-08-23T22:32:38.340Z,3.40
2023-08-23T22:37:41.474Z,3.30
2023-08-23T22:42:46.107Z,3.87
2023-08-23T22:47:49.506Z,4.90
2023-08-23T22:52:53.350Z,3.63
2023-08-23T22:57:58.036Z,3.60
2023-08-23T23:03:01.777Z,4.17
2023-08-23T23:08:06.976Z,5.00
2023-08-23T23:13:11.827Z,3.80
2023-08-23T23:18:16.197Z,5.20
2023-08-23T23:23:19.634Z,3.57
2023-08-23T23:28:24.408Z,3.73
2023-08-23T23:33:28.726Z,3.60
2023-08-23T23:38:32.337Z,6.87
2023-08-23T23:43:37.150Z,5.63
2023-08-23T23:48:40.620Z,3.63
2023-08-23T23:53:44.225Z,4.97
2023-08-23T23:58:48.704Z,4.43
